createdAt,value
2023-04-28T00:01:06.321Z,22.20
2023-04-28T00:04:08.970Z,22.20
2023-04-28T00:07:11.362Z,22.20
2023-04-28T00:10:13.650Z,22.30
2023-04-28T00:13:15.967Z,22.30
2023-04-28T00:16:18.150Z,22.40
2023-04-28T00:19:20.596Z,22.40
2023-04-28T00:22:22.947Z,22.40
2023-04-28T00:25:25.190Z,22.40
2023-04-28T00:28:34.093Z,22.40
2023-04-28T00:31:36.995Z,22.40
2023-04-28T00:34:39.111Z,22.50
2023-04-28T00:37:41.355Z,22.60
2023-04-28T00:40:43.455Z,22.60
2023-04-28T00:43:48.226Z,22.70
2023-04-28T00:46:50.652Z,22.60
2023-04-28T00:49:53.256Z,22.70
2023-04-28T00:52:55.432Z,22.70
2023-04-28T00:55:58.482Z,22.80
2023-04-28T00:59:00.901Z,22.70
2023-04-28T01:02:04.217Z,22.80
2023-04-28T01:05:07.021Z,22.80
2023-04-28T01:08:09.650Z,22.70
2023-04-28T01:11:14.510Z,22.80
2023-04-28T01:14:17.632Z,22.80
2023-04-28T01:17:20.152Z,22.80
2023-04-28T01:20:22.238Z,22.90
2023-04-28T01:23:24.337Z,22.90
2023-04-28T01:26:26.624Z,22.90
2023-04-28T01:29:28.954Z,22.90
2023-04-28T01:32:31.218Z,22.90
2023-04-28T01:35:33.432Z,22.80
2023-04-28T01:38:35.648Z,22.70
2023-04-28T01:41:37.810Z,22.60
2023-04-28T01:44:40.503Z,22.60
2023-04-28T01:47:42.927Z,22.50
2023-04-28T01:50:45.179Z,22.40
2023-04-28T01:53:47.314Z,22.40
2023-04-28T01:56:49.471Z,22.40
2023-04-28T01:59:51.659Z,22.20
2023-04-28T02:02:53.915Z,22.00
2023-04-28T02:05:56.033Z,21.80
2023-04-28T02:08:59.025Z,21.90
2023-04-28T02:12:02.491Z,21.80
2023-04-28T02:15:05.032Z,21.80
2023-04-28T02:18:08.327Z,21.70
2023-04-28T02:21:12.025Z,21.70
2023-04-28T02:24:14.481Z,21.70
2023-04-28T02:27:17.024Z,21.70
2023-04-28T02:30:19.200Z,21.70
2023-04-28T02:33:21.494Z,21.70
2023-04-28T02:36:23.607Z,21.70
2023-04-28T02:39:27.361Z,21.70
2023-04-28T02:42:29.506Z,21.70
2023-04-28T02:45:31.593Z,21.70
2023-04-28T02:48:38.092Z,21.60
2023-04-28T02:51:40.768Z,21.60
2023-04-28T02:54:49.061Z,21.50
2023-04-28T02:57:52.610Z,21.50
2023-04-28T03:00:54.728Z,21.50
2023-04-28T03:03:57.114Z,21.40
2023-04-28T03:06:59.561Z,21.40
2023-04-28T03:10:01.747Z,21.40
2023-04-28T03:13:04.302Z,21.40
2023-04-28T03:16:08.113Z,21.40
2023-04-28T03:19:10.317Z,21.40
2023-04-28T03:22:12.416Z,21.30
2023-04-28T03:25:14.628Z,21.30
2023-04-28T03:28:17.087Z,21.20
2023-04-28T03:31:19.191Z,21.20
2023-04-28T03:34:21.429Z,21.10
2023-04-28T03:37:23.595Z,21.10
2023-04-28T03:40:25.960Z,21.10
2023-04-28T03:43:28.102Z,21.00
2023-04-28T03:46:30.308Z,21.00
2023-04-28T03:49:32.450Z,21.00
2023-04-28T03:52:34.614Z,20.90
2023-04-28T03:55:36.962Z,20.90
2023-04-28T03:58:39.115Z,20.90
2023-04-28T04:01:41.273Z,20.90
2023-04-28T04:04:45.488Z,20.90
2023-04-28T04:07:47.721Z,20.90
2023-04-28T04:10:50.223Z,20.90
2023-04-28T04:13:52.294Z,20.90
2023-04-28T04:16:55.634Z,20.80
2023-04-28T04:19:57.820Z,20.80
2023-04-28T04:23:00.010Z,20.80
2023-04-28T04:26:02.119Z,20.80
2023-04-28T04:29:04.385Z,20.80
2023-04-28T04:32:07.493Z,20.70
2023-04-28T04:35:09.893Z,20.70
2023-04-28T04:38:13.318Z,20.70
2023-04-28T04:41:15.592Z,20.70
2023-04-28T04:44:18.852Z,20.70
2023-04-28T04:47:22.478Z,20.70
2023-04-28T04:50:25.449Z,20.80
2023-04-28T04:53:27.615Z,20.80
2023-04-28T04:56:29.762Z,20.80
2023-04-28T04:59:31.878Z,20.80
2023-04-28T05:02:34.098Z,20.80
2023-04-28T05:05:36.300Z,20.80
2023-04-28T05:08:38.377Z,20.80
2023-04-28T05:11:40.827Z,20.80
2023-04-28T05:14:42.905Z,20.70
2023-04-28T05:17:45.318Z,20.70
2023-04-28T05:20:47.523Z,20.70
2023-04-28T05:23:50.220Z,20.70
2023-04-28T05:26:54.268Z,20.70
2023-04-28T05:29:56.442Z,20.70
2023-04-28T05:32:58.693Z,20.80
2023-04-28T05:36:01.261Z,20.70
2023-04-28T05:39:03.356Z,20.70
2023-04-28T05:42:06.750Z,20.70
2023-04-28T05:45:09.515Z,20.70
2023-04-28T05:48:11.794Z,20.60
2023-04-28T05:51:14.012Z,20.60
2023-04-28T05:54:16.540Z,20.60
2023-04-28T05:57:18.889Z,20.70
2023-04-28T06:00:22.425Z,20.70
2023-04-28T06:03:25.030Z,20.80
2023-04-28T06:06:28.686Z,20.80
2023-04-28T06:09:31.862Z,20.70
2023-04-28T06:12:34.012Z,20.70
2023-04-28T06:15:36.285Z,20.80
2023-04-28T06:18:38.558Z,20.80
2023-04-28T06:21:41.411Z,20.90
2023-04-28T06:24:44.236Z,21.00
2023-04-28T06:27:46.556Z,21.10
2023-04-28T06:30:48.777Z,21.20
2023-04-28T06:33:50.918Z,21.30
2023-04-28T06:36:53.135Z,21.40
2023-04-28T06:39:55.495Z,21.50
2023-04-28T06:42:57.693Z,21.70
2023-04-28T06:45:59.810Z,21.80
2023-04-28T06:49:03.005Z,22.00
2023-04-28T06:52:05.116Z,22.30
2023-04-28T06:55:09.616Z,22.90
2023-04-28T06:58:11.941Z,23.50
2023-04-28T07:01:14.152Z,24.10
2023-04-28T07:04:18.925Z,24.50
2023-04-28T07:07:21.741Z,25.30
2023-04-28T07:10:24.004Z,25.80
2023-04-28T07:13:26.212Z,25.80
2023-04-28T07:16:28.745Z,25.80
2023-04-28T07:19:31.065Z,25.80
2023-04-28T07:22:33.322Z,26.20
2023-04-28T07:25:36.523Z,26.10
2023-04-28T07:28:40.004Z,26.20
2023-04-28T07:31:42.192Z,26.80
2023-04-28T07:34:44.366Z,26.50
2023-04-28T07:37:46.812Z,26.70
2023-04-28T07:40:49.474Z,26.60
2023-04-28T07:43:51.709Z,26.50
2023-04-28T07:46:54.136Z,26.30
2023-04-28T07:49:56.446Z,26.00
2023-04-28T07:52:59.760Z,25.90
2023-04-28T07:56:02.217Z,25.80
2023-04-28T07:59:04.388Z,26.00
2023-04-28T08:02:08.147Z,25.80
2023-04-28T08:05:11.054Z,25.50
2023-04-28T08:08:13.581Z,25.40
2023-04-28T08:11:15.695Z,25.30
2023-04-28T08:14:18.162Z,25.80
2023-04-28T08:17:20.520Z,26.00
2023-04-28T08:20:24.665Z,25.60
2023-04-28T08:23:32.097Z,25.30
2023-04-28T08:26:34.432Z,25.40
2023-04-28T08:29:40.459Z,25.80
2023-04-28T08:32:42.779Z,26.40
2023-04-28T08:35:45.153Z,26.90
2023-04-28T08:38:47.859Z,27.60
2023-04-28T08:41:50.885Z,28.40
2023-04-28T08:44:59.677Z,30.20
2023-04-28T08:48:05.385Z,31.80
2023-04-28T08:51:08.520Z,33.30
2023-04-28T08:54:25.584Z,33.90
2023-04-28T08:57:35.555Z,34.20
2023-04-28T09:00:38.654Z,35.00
2023-04-28T09:03:41.438Z,35.70
2023-04-28T09:06:43.909Z,35.70
2023-04-28T09:09:46.037Z,36.00
2023-04-28T09:12:51.228Z,35.80
2023-04-28T09:16:00.380Z,35.40
2023-04-28T09:19:02.644Z,35.40
2023-04-28T09:22:21.934Z,35.50
2023-04-28T09:25:29.159Z,35.50
2023-04-28T09:28:36.697Z,36.10
2023-04-28T09:31:40.953Z,36.20
2023-04-28T09:34:47.922Z,36.70
2023-04-28T09:37:59.258Z,37.10
2023-04-28T09:41:03.227Z,37.00
2023-04-28T09:44:31.587Z,36.10
2023-04-28T09:47:38.196Z,35.70
2023-04-28T09:50:41.996Z,35.50
2023-04-28T09:53:44.369Z,34.20
2023-04-28T09:56:48.495Z,33.80
2023-04-28T09:59:53.308Z,34.10
2023-04-28T10:02:56.345Z,34.20
2023-04-28T10:05:59.541Z,33.90
2023-04-28T10:09:02.418Z,34.10
2023-04-28T10:12:05.815Z,33.60
2023-04-28T10:15:09.767Z,34.30
2023-04-28T10:18:15.747Z,35.20
2023-04-28T10:21:19.982Z,35.50
2023-04-28T10:24:33.339Z,36.00
2023-04-28T10:27:37.128Z,36.20
2023-04-28T10:30:39.615Z,36.10
2023-04-28T10:33:42.572Z,36.30
2023-04-28T10:36:53.260Z,36.20
2023-04-28T10:40:35.129Z,35.80
2023-04-28T10:43:42.128Z,36.30
2023-04-28T10:47:10.749Z,36.50
2023-04-28T10:50:13.960Z,36.60
2023-04-28T10:53:16.390Z,36.70
2023-04-28T10:56:19.909Z,36.70
2023-04-28T10:59:28.098Z,36.40
2023-04-28T11:02:41.149Z,36.20
2023-04-28T11:06:25.777Z,36.50
2023-04-28T11:09:33.759Z,37.10
2023-04-28T11:12:36.056Z,37.00
2023-04-28T11:15:39.265Z,35.80
2023-04-28T11:18:57.918Z,34.50
2023-04-28T11:22:01.949Z,34.40
2023-04-28T11:25:04.307Z,34.90
2023-04-28T11:28:08.810Z,35.60
2023-04-28T11:31:12.844Z,35.30
2023-04-28T11:34:20.421Z,35.20
2023-04-28T11:37:25.381Z,35.10
2023-04-28T11:40:27.821Z,34.40
2023-04-28T11:43:46.106Z,33.70
2023-04-28T11:46:57.457Z,33.60
2023-04-28T11:50:00.065Z,33.10
2023-04-28T11:53:02.207Z,32.80
2023-04-28T11:56:10.182Z,32.70
2023-04-28T11:59:14.025Z,32.40
2023-04-28T12:02:17.942Z,32.40
2023-04-28T12:05:22.513Z,32.50
2023-04-28T12:08:33.509Z,32.10
2023-04-28T12:11:35.826Z,32.00
2023-04-28T12:14:58.223Z,31.90
2023-04-28T12:18:11.865Z,31.60
2023-04-28T12:21:22.028Z,31.50
2023-04-28T12:24:26.234Z,31.70
2023-04-28T12:27:29.579Z,31.90
2023-04-28T12:30:34.089Z,32.00
2023-04-28T12:33:39.626Z,32.10
2023-04-28T12:36:41.901Z,31.90
2023-04-28T12:39:45.602Z,31.60
2023-04-28T12:42:50.153Z,31.50
2023-04-28T12:45:54.002Z,31.40
2023-04-28T12:48:57.270Z,31.30
2023-04-28T12:51:59.496Z,31.40
2023-04-28T12:55:02.242Z,31.30
2023-04-28T12:58:04.356Z,31.30
2023-04-28T13:01:06.845Z,31.20
2023-04-28T13:04:09.957Z,31.20
2023-04-28T13:07:13.162Z,30.80
2023-04-28T13:10:15.600Z,30.60
2023-04-28T13:13:17.714Z,30.60
2023-04-28T13:16:20.251Z,30.60
2023-04-28T13:19:22.412Z,30.60
2023-04-28T13:22:25.377Z,30.70
2023-04-28T13:25:27.513Z,30.60
2023-04-28T13:28:29.723Z,30.30
2023-04-28T13:31:32.217Z,30.60
2023-04-28T13:34:34.414Z,30.40
2023-04-28T13:37:39.237Z,30.40
2023-04-28T13:40:42.745Z,30.40
2023-04-28T13:43:45.870Z,30.50
2023-04-28T13:46:48.693Z,30.60
2023-04-28T13:49:51.562Z,30.60
2023-04-28T13:52:54.254Z,30.80
2023-04-28T13:55:57.890Z,30.30
2023-04-28T13:59:00.131Z,30.30
2023-04-28T14:02:02.218Z,30.20
2023-04-28T14:05:04.539Z,30.40
2023-04-28T14:08:07.156Z,30.70
2023-04-28T14:11:09.645Z,30.80
2023-04-28T14:14:12.265Z,31.10
2023-04-28T14:17:14.470Z,31.20
2023-04-28T14:20:16.720Z,31.30
2023-04-28T14:23:18.996Z,31.30
2023-04-28T14:26:21.256Z,31.40
2023-04-28T14:29:23.458Z,31.60
2023-04-28T14:32:26.110Z,31.80
2023-04-28T14:35:28.571Z,31.90
2023-04-28T14:38:30.938Z,32.00
2023-04-28T14:41:34.082Z,32.00
2023-04-28T14:44:36.737Z,31.90
2023-04-28T14:47:39.537Z,31.70
2023-04-28T14:50:43.379Z,31.60
2023-04-28T14:53:45.527Z,31.90
2023-04-28T14:56:50.810Z,31.90
2023-04-28T14:59:53.896Z,31.80
2023-04-28T15:02:56.261Z,31.50
2023-04-28T15:05:58.486Z,31.60
2023-04-28T15:09:00.616Z,31.60
2023-04-28T15:12:03.579Z,31.60
2023-04-28T15:15:06.277Z,31.30
2023-04-28T15:18:08.685Z,31.10
2023-04-28T15:21:10.860Z,31.20
2023-04-28T15:24:13.947Z,31.00
2023-04-28T15:27:16.205Z,30.70
2023-04-28T15:30:19.717Z,30.60
2023-04-28T15:33:22.031Z,30.70
2023-04-28T15:36:24.573Z,30.60
2023-04-28T15:39:28.502Z,30.50
2023-04-28T15:42:31.454Z,30.50
2023-04-28T15:45:34.497Z,30.50
2023-04-28T15:48:39.884Z,30.10
2023-04-28T15:51:42.409Z,30.10
2023-04-28T15:54:47.649Z,29.90
2023-04-28T15:57:49.918Z,29.80
2023-04-28T16:00:52.404Z,29.60
2023-04-28T16:03:57.541Z,29.30
2023-04-28T16:07:02.690Z,29.10
2023-04-28T16:10:09.941Z,29.10
2023-04-28T16:13:12.471Z,29.10
2023-04-28T16:16:14.682Z,29.10
2023-04-28T16:19:17.248Z,29.10
2023-04-28T16:22:19.727Z,29.00
2023-04-28T16:25:22.115Z,29.10
2023-04-28T16:28:24.248Z,29.00
2023-04-28T16:31:26.759Z,29.00
2023-04-28T16:34:28.891Z,29.00
2023-04-28T16:37:31.390Z,29.10
2023-04-28T16:40:33.485Z,29.20
2023-04-28T16:43:37.485Z,29.00
2023-04-28T16:46:39.918Z,29.10
2023-04-28T16:49:42.091Z,28.80
2023-04-28T16:52:45.115Z,28.90
2023-04-28T16:55:47.920Z,28.80
2023-04-28T16:58:50.180Z,28.80
2023-04-28T17:01:52.768Z,28.60
2023-04-28T17:04:54.988Z,28.50
2023-04-28T17:07:58.060Z,28.50
2023-04-28T17:11:06.983Z,28.40
2023-04-28T17:14:09.216Z,28.30
2023-04-28T17:17:11.316Z,28.30
2023-04-28T17:20:16.999Z,28.20
2023-04-28T17:23:19.424Z,28.10
2023-04-28T17:26:21.907Z,27.90
2023-04-28T17:29:24.041Z,27.70
2023-04-28T17:32:27.134Z,27.60
2023-04-28T17:35:30.265Z,27.50
2023-04-28T17:38:33.158Z,27.30
2023-04-28T17:41:35.530Z,27.10
2023-04-28T17:44:37.723Z,27.00
2023-04-28T17:47:39.843Z,26.90
2023-04-28T17:50:42.074Z,26.80
2023-04-28T17:53:46.390Z,26.80
2023-04-28T17:56:49.286Z,26.70
2023-04-28T17:59:51.601Z,26.60
2023-04-28T18:02:55.742Z,26.60
2023-04-28T18:05:58.103Z,26.60
2023-04-28T18:09:00.210Z,26.60
2023-04-28T18:12:04.621Z,26.60
2023-04-28T18:15:08.200Z,26.30
2023-04-28T18:18:11.297Z,26.40
2023-04-28T18:21:13.553Z,26.20
2023-04-28T18:24:15.691Z,26.30
2023-04-28T18:27:17.936Z,26.30
2023-04-28T18:30:20.490Z,26.40
2023-04-28T18:33:26.059Z,26.50
2023-04-28T18:36:28.169Z,26.50
2023-04-28T18:39:30.432Z,26.50
2023-04-28T18:42:33.232Z,26.40
2023-04-28T18:45:36.935Z,26.20
2023-04-28T18:48:40.518Z,26.10
2023-04-28T18:51:42.803Z,26.00
2023-04-28T18:54:45.121Z,25.90
2023-04-28T18:57:50.207Z,25.80
2023-04-28T19:00:53.164Z,25.60
2023-04-28T19:03:55.569Z,25.40
2023-04-28T19:06:57.814Z,25.20
2023-04-28T19:10:00.135Z,25.10
2023-04-28T19:13:02.542Z,25.00
2023-04-28T19:16:05.570Z,24.80
2023-04-28T19:19:09.631Z,24.80
2023-04-28T19:22:35.468Z,24.70
2023-04-28T19:25:37.626Z,24.60
2023-04-28T19:28:40.006Z,24.50
2023-04-28T19:31:42.791Z,24.40
2023-04-28T19:34:46.285Z,24.20
2023-04-28T19:37:49.930Z,24.20
2023-04-28T19:41:02.342Z,24.20
2023-04-28T19:44:05.656Z,24.00
2023-04-28T19:47:08.162Z,23.90
2023-04-28T19:50:10.803Z,23.90
2023-04-28T19:53:13.269Z,23.70
2023-04-28T19:56:15.408Z,23.70
2023-04-28T19:59:17.989Z,23.60
2023-04-28T20:02:21.369Z,23.60
2023-04-28T20:05:23.647Z,23.60
2023-04-28T20:08:27.654Z,23.50
2023-04-28T20:11:29.912Z,23.40
2023-04-28T20:14:33.056Z,23.40
2023-04-28T20:17:35.251Z,23.30
2023-04-28T20:20:38.538Z,23.20
2023-04-28T20:23:40.918Z,23.10
2023-04-28T20:26:43.706Z,23.00
2023-04-28T20:29:46.538Z,23.10
2023-04-28T20:32:50.285Z,23.10
2023-04-28T20:35:52.635Z,23.00
2023-04-28T20:38:54.720Z,23.00
2023-04-28T20:41:57.560Z,23.00
2023-04-28T20:45:00.249Z,22.90
2023-04-28T20:48:03.311Z,22.80
2023-04-28T20:51:05.635Z,22.80
2023-04-28T20:54:08.145Z,22.80
2023-04-28T20:57:10.615Z,22.70
2023-04-28T21:00:13.434Z,22.70
2023-04-28T21:03:16.107Z,22.60
2023-04-28T21:06:19.428Z,22.60
2023-04-28T21:09:23.919Z,22.50
2023-04-28T21:12:26.372Z,22.50
2023-04-28T21:15:29.014Z,22.50
2023-04-28T21:18:31.261Z,22.40
2023-04-28T21:21:34.559Z,22.40
2023-04-28T21:24:36.698Z,22.40
2023-04-28T21:27:39.050Z,22.40
2023-04-28T21:30:41.162Z,22.30
2023-04-28T21:33:44.623Z,22.30
2023-04-28T21:36:46.923Z,22.30
2023-04-28T21:39:49.358Z,22.20
2023-04-28T21:42:51.858Z,22.20
2023-04-28T21:45:54.073Z,22.20
2023-04-28T21:48:56.391Z,22.10
2023-04-28T21:51:58.524Z,22.00
2023-04-28T21:55:00.589Z,22.10
2023-04-28T21:58:02.848Z,22.00
2023-04-28T22:01:05.578Z,22.00
2023-04-28T22:04:08.891Z,21.90
2023-04-28T22:07:11.264Z,21.90
2023-04-28T22:10:13.498Z,21.90
2023-04-28T22:13:16.149Z,21.80
2023-04-28T22:16:18.441Z,21.80
2023-04-28T22:19:21.122Z,21.80
2023-04-28T22:22:23.378Z,21.80
2023-04-28T22:25:26.106Z,21.80
2023-04-28T22:28:28.237Z,21.80
2023-04-28T22:31:31.367Z,21.70
2023-04-28T22:34:33.510Z,21.70
2023-04-28T22:37:36.619Z,21.70
2023-04-28T22:40:38.817Z,21.80
2023-04-28T22:43:41.041Z,21.80
2023-04-28T22:46:43.532Z,21.70
2023-04-28T22:49:45.973Z,21.60
2023-04-28T22:52:49.599Z,21.60
2023-04-28T22:55:51.720Z,21.60
2023-04-28T22:58:53.852Z,21.60
2023-04-28T23:01:57.051Z,21.50
2023-04-28T23:05:00.201Z,21.40
2023-04-28T23:08:02.757Z,21.30
2023-04-28T23:11:08.122Z,21.20
2023-04-28T23:14:10.256Z,21.10
2023-04-28T23:17:12.442Z,21.00
2023-04-28T23:20:15.192Z,20.90
2023-04-28T23:23:17.638Z,20.90
2023-04-28T23:26:21.018Z,21.00
2023-04-28T23:29:23.368Z,20.90
2023-04-28T23:32:27.398Z,20.90
2023-04-28T23:35:29.789Z,20.80
2023-04-28T23:38:31.974Z,20.80
2023-04-28T23:41:34.312Z,20.80
2023-04-28T23:44:37.001Z,20.70
2023-04-28T23:47:39.162Z,20.60
2023-04-28T23:50:42.914Z,20.60
2023-04-28T23:53:46.568Z,20.70
2023-04-28T23:56:48.700Z,20.80
2023-04-28T23:59:51.027Z,20.80
